sensor_id;sensor_type;location;lat;lon;timestamp;temperature;humidity
22765;DHT22;11549;50.852;3.816;2022-07-06T00:02:12;15.00;99.90
22765;DHT22;11549;50.852;3.816;2022-07-06T00:04:41;15.00;99.90
22765;DHT22;11549;50.852;3.816;2022-07-06T00:07:12;15.00;99.90
22765;DHT22;11549;50.852;3.816;2022-07-06T00:09:43;15.00;99.90
22765;DHT22;11549;50.852;3.816;2022-07-06T00:12:12;15.00;99.90
22765;DHT22;11549;50.852;3.816;2022-07-06T00:14:40;15.00;99.90
22765;DHT22;11549;50.852;3.816;2022-07-06T00:17:08;14.90;99.90
22765;DHT22;11549;50.852;3.816;2022-07-06T00:19:37;14.90;99.90
22765;DHT22;11549;50.852;3.816;2022-07-06T00:22:05;14.80;99.90
22765;DHT22;11549;50.852;3.816;2022-07-06T00:24:33;14.80;99.90
22765;DHT22;11549;50.852;3.816;2022-07-06T00:27:04;14.70;99.90
22765;DHT22;11549;50.852;3.816;2022-07-06T00:29:32;14.60;99.90
22765;DHT22;11549;50.852;3.816;2022-07-06T00:32:00;14.60;99.90
22765;DHT22;11549;50.852;3.816;2022-07-06T00:34:29;14.40;99.90
22765;DHT22;11549;50.852;3.816;2022-07-06T00:36:57;14.40;99.90
22765;DHT22;11549;50.852;3.816;2022-07-06T00:39:26;14.20;99.90
22765;DHT22;11549;50.852;3.816;2022-07-06T00:41:56;14.20;99.90
22765;DHT22;11549;50.852;3.816;2022-07-06T00:44:26;14.10;99.90
22765;DHT22;11549;50.852;3.816;2022-07-06T00:46:56;13.90;99.90
22765;DHT22;11549;50.852;3.816;2022-07-06T00:49:24;13.90;99.90
22765;DHT22;11549;50.852;3.816;2022-07-06T00:52:10;13.90;99.90
22765;DHT22;11549;50.852;3.816;2022-07-06T00:54:39;13.90;99.90
22765;DHT22;11549;50.852;3.816;2022-07-06T00:57:09;13.80;99.90
22765;DHT22;11549;50.852;3.816;2022-07-06T00:59:39;13.90;99.90
22765;DHT22;11549;50.852;3.816;2022-07-06T01:02:07;13.90;99.90
22765;DHT22;11549;50.852;3.816;2022-07-06T01:04:36;13.90;99.90
22765;DHT22;11549;50.852;3.816;2022-07-06T01:07:04;14.00;99.90
22765;DHT22;11549;50.852;3.816;2022-07-06T01:09:34;14.00;99.90
22765;DHT22;11549;50.852;3.816;2022-07-06T01:12:03;13.90;99.90
22765;DHT22;11549;50.852;3.816;2022-07-06T01:14:33;14.00;99.90
22765;DHT22;11549;50.852;3.816;2022-07-06T01:17:03;14.00;99.90
22765;DHT22;11549;50.852;3.816;2022-07-06T01:19:31;13.90;99.90
22765;DHT22;11549;50.852;3.816;2022-07-06T01:22:02;14.00;99.90
22765;DHT22;11549;50.852;3.816;2022-07-06T01:24:30;14.00;99.90
22765;DHT22;11549;50.852;3.816;2022-07-06T01:26:58;14.10;99.90
22765;DHT22;11549;50.852;3.816;2022-07-06T01:29:27;14.10;99.90
22765;DHT22;11549;50.852;3.816;2022-07-06T01:31:55;14.20;99.90
22765;DHT22;11549;50.852;3.816;2022-07-06T01:34:23;14.30;99.90
22765;DHT22;11549;50.852;3.816;2022-07-06T01:36:52;14.30;99.90
22765;DHT22;11549;50.852;3.816;2022-07-06T01:39:23;14.40;99.90
22765;DHT22;11549;50.852;3.816;2022-07-06T01:41:51;14.50;99.90
22765;DHT22;11549;50.852;3.816;2022-07-06T01:44:19;14.50;99.90
22765;DHT22;11549;50.852;3.816;2022-07-06T01:46:48;14.50;99.90
22765;DHT22;11549;50.852;3.816;2022-07-06T01:49:16;14.60;99.90
22765;DHT22;11549;50.852;3.816;2022-07-06T01:51:44;14.70;99.90
22765;DHT22;11549;50.852;3.816;2022-07-06T01:54:13;14.70;99.90
22765;DHT22;11549;50.852;3.816;2022-07-06T01:56:42;14.70;99.90
22765;DHT22;11549;50.852;3.816;2022-07-06T01:59:11;14.80;99.90
22765;DHT22;11549;50.852;3.816;2022-07-06T02:01:42;14.80;99.90
22765;DHT22;11549;50.852;3.816;2022-07-06T02:04:11;14.80;99.90
22765;DHT22;11549;50.852;3.816;2022-07-06T02:06:39;14.80;99.90
22765;DHT22;11549;50.852;3.816;2022-07-06T02:09:11;14.80;99.90
22765;DHT22;11549;50.852;3.816;2022-07-06T02:11:39;14.90;99.90
22765;DHT22;11549;50.852;3.816;2022-07-06T02:14:09;15.00;99.90
22765;DHT22;11549;50.852;3.816;2022-07-06T02:16:38;15.00;99.90
22765;DHT22;11549;50.852;3.816;2022-07-06T02:19:07;15.00;99.90
22765;DHT22;11549;50.852;3.816;2022-07-06T02:21:35;14.90;99.90
22765;DHT22;11549;50.852;3.816;2022-07-06T02:24:04;14.80;99.90
22765;DHT22;11549;50.852;3.816;2022-07-06T02:26:33;14.60;99.90
22765;DHT22;11549;50.852;3.816;2022-07-06T02:29:01;14.60;99.90
22765;DHT22;11549;50.852;3.816;2022-07-06T02:31:32;14.60;99.90
22765;DHT22;11549;50.852;3.816;2022-07-06T02:34:00;14.60;99.90
22765;DHT22;11549;50.852;3.816;2022-07-06T02:36:28;14.70;99.90
22765;DHT22;11549;50.852;3.816;2022-07-06T02:38:57;14.70;99.90
22765;DHT22;11549;50.852;3.816;2022-07-06T02:41:25;14.60;99.90
22765;DHT22;11549;50.852;3.816;2022-07-06T02:43:53;14.60;99.90
22765;DHT22;11549;50.852;3.816;2022-07-06T02:46:22;14.70;99.90
22765;DHT22;11549;50.852;3.816;2022-07-06T02:48:52;14.60;99.90
22765;DHT22;11549;50.852;3.816;2022-07-06T02:51:20;14.50;99.90
22765;DHT22;11549;50.852;3.816;2022-07-06T02:53:50;14.40;99.90
22765;DHT22;11549;50.852;3.816;2022-07-06T02:56:18;14.40;99.90
22765;DHT22;11549;50.852;3.816;2022-07-06T02:58:46;14.30;99.90
22765;DHT22;11549;50.852;3.816;2022-07-06T03:01:14;14.30;99.90
22765;DHT22;11549;50.852;3.816;2022-07-06T03:03:43;14.10;99.90
22765;DHT22;11549;50.852;3.816;2022-07-06T03:06:13;14.10;99.90
22765;DHT22;11549;50.852;3.816;2022-07-06T03:08:41;14.00;99.90
22765;DHT22;11549;50.852;3.816;2022-07-06T03:11:10;13.90;99.90
22765;DHT22;11549;50.852;3.816;2022-07-06T03:13:38;14.00;99.90
22765;DHT22;11549;50.852;3.816;2022-07-06T03:16:06;14.00;99.90
22765;DHT22;11549;50.852;3.816;2022-07-06T03:18:35;13.90;99.90
22765;DHT22;11549;50.852;3.816;2022-07-06T03:21:03;13.90;99.90
22765;DHT22;11549;50.852;3.816;2022-07-06T03:23:33;13.80;99.90
22765;DHT22;11549;50.852;3.816;2022-07-06T03:26:01;13.80;99.90
22765;DHT22;11549;50.852;3.816;2022-07-06T03:28:30;13.80;99.90
22765;DHT22;11549;50.852;3.816;2022-07-06T03:30:58;13.80;99.90
22765;DHT22;11549;50.852;3.816;2022-07-06T03:33:27;13.80;99.90
22765;DHT22;11549;50.852;3.816;2022-07-06T03:35:55;13.80;99.90
22765;DHT22;11549;50.852;3.816;2022-07-06T03:38:23;13.90;99.90
22765;DHT22;11549;50.852;3.816;2022-07-06T03:40:54;13.90;99.90
22765;DHT22;11549;50.852;3.816;2022-07-06T03:43:22;13.90;99.90
22765;DHT22;11549;50.852;3.816;2022-07-06T03:45:50;13.90;99.90
22765;DHT22;11549;50.852;3.816;2022-07-06T03:48:19;13.90;99.90
22765;DHT22;11549;50.852;3.816;2022-07-06T03:50:48;14.00;99.90
22765;DHT22;11549;50.852;3.816;2022-07-06T03:53:16;13.90;99.90
22765;DHT22;11549;50.852;3.816;2022-07-06T03:55:44;14.00;99.90
22765;DHT22;11549;50.852;3.816;2022-07-06T03:58:35;14.00;99.90
22765;DHT22;11549;50.852;3.816;2022-07-06T04:01:03;14.10;99.90
22765;DHT22;11549;50.852;3.816;2022-07-06T04:03:32;14.10;99.90
22765;DHT22;11549;50.852;3.816;2022-07-06T04:06:01;14.10;99.90
22765;DHT22;11549;50.852;3.816;2022-07-06T04:08:29;14.10;99.90
22765;DHT22;11549;50.852;3.816;2022-07-06T04:10:57;14.10;99.90
22765;DHT22;11549;50.852;3.816;2022-07-06T04:13:25;14.20;99.90
22765;DHT22;11549;50.852;3.816;2022-07-06T04:15:55;14.20;99.90
22765;DHT22;11549;50.852;3.816;2022-07-06T04:18:23;14.20;99.90
22765;DHT22;11549;50.852;3.816;2022-07-06T04:20:53;14.30;99.90
22765;DHT22;11549;50.852;3.816;2022-07-06T04:23:21;14.30;99.90
22765;DHT22;11549;50.852;3.816;2022-07-06T04:25:49;14.40;99.90
22765;DHT22;11549;50.852;3.816;2022-07-06T04:28:18;14.50;99.90
22765;DHT22;11549;50.852;3.816;2022-07-06T04:30:46;14.80;99.90
22765;DHT22;11549;50.852;3.816;2022-07-06T04:33:16;15.00;99.90
22765;DHT22;11549;50.852;3.816;2022-07-06T04:35:45;15.20;99.90
22765;DHT22;11549;50.852;3.816;2022-07-06T04:38:16;15.40;99.90
22765;DHT22;11549;50.852;3.816;2022-07-06T04:40:45;15.60;99.90
22765;DHT22;11549;50.852;3.816;2022-07-06T04:43:14;15.80;99.90
22765;DHT22;11549;50.852;3.816;2022-07-06T04:45:43;16.00;99.90
22765;DHT22;11549;50.852;3.816;2022-07-06T04:48:13;16.20;99.90
22765;DHT22;11549;50.852;3.816;2022-07-06T04:50:43;16.40;99.90
22765;DHT22;11549;50.852;3.816;2022-07-06T04:53:11;16.50;99.90
22765;DHT22;11549;50.852;3.816;2022-07-06T04:55:40;16.70;99.90
22765;DHT22;11549;50.852;3.816;2022-07-06T04:58:08;16.80;99.90
22765;DHT22;11549;50.852;3.816;2022-07-06T05:00:37;17.00;99.90
22765;DHT22;11549;50.852;3.816;2022-07-06T05:03:05;17.10;99.90
22765;DHT22;11549;50.852;3.816;2022-07-06T05:05:34;17.20;99.90
22765;DHT22;11549;50.852;3.816;2022-07-06T05:08:04;17.20;99.90
22765;DHT22;11549;50.852;3.816;2022-07-06T05:10:32;17.20;99.90
22765;DHT22;11549;50.852;3.816;2022-07-06T05:13:00;17.30;99.90
22765;DHT22;11549;50.852;3.816;2022-07-06T05:15:29;17.40;99.90
22765;DHT22;11549;50.852;3.816;2022-07-06T05:17:57;17.50;99.90
22765;DHT22;11549;50.852;3.816;2022-07-06T05:20:26;17.70;99.90
22765;DHT22;11549;50.852;3.816;2022-07-06T05:22:54;17.80;99.90
22765;DHT22;11549;50.852;3.816;2022-07-06T05:25:24;17.90;99.90
22765;DHT22;11549;50.852;3.816;2022-07-06T05:27:52;17.90;99.90
22765;DHT22;11549;50.852;3.816;2022-07-06T05:30:20;17.90;99.90
22765;DHT22;11549;50.852;3.816;2022-07-06T05:32:49;17.80;99.90
22765;DHT22;11549;50.852;3.816;2022-07-06T05:35:17;17.80;99.90
22765;DHT22;11549;50.852;3.816;2022-07-06T05:38:06;17.70;99.90
22765;DHT22;11549;50.852;3.816;2022-07-06T05:40:35;17.60;99.90
22765;DHT22;11549;50.852;3.816;2022-07-06T05:43:04;17.60;99.90
22765;DHT22;11549;50.852;3.816;2022-07-06T05:45:32;17.60;99.90
22765;DHT22;11549;50.852;3.816;2022-07-06T05:48:01;17.50;99.90
22765;DHT22;11549;50.852;3.816;2022-07-06T05:50:48;17.50;99.90
22765;DHT22;11549;50.852;3.816;2022-07-06T05:53:16;17.30;99.90
22765;DHT22;11549;50.852;3.816;2022-07-06T05:55:47;17.30;99.90
22765;DHT22;11549;50.852;3.816;2022-07-06T05:58:16;17.40;99.90
22765;DHT22;11549;50.852;3.816;2022-07-06T06:00:44;17.50;99.90
22765;DHT22;11549;50.852;3.816;2022-07-06T06:03:13;17.50;99.90
22765;DHT22;11549;50.852;3.816;2022-07-06T06:05:41;17.70;99.90
22765;DHT22;11549;50.852;3.816;2022-07-06T06:08:09;17.80;99.90
22765;DHT22;11549;50.852;3.816;2022-07-06T06:10:38;18.00;99.90
22765;DHT22;11549;50.852;3.816;2022-07-06T06:13:08;18.10;99.90
22765;DHT22;11549;50.852;3.816;2022-07-06T06:15:37;18.30;99.90
22765;DHT22;11549;50.852;3.816;2022-07-06T06:18:05;18.50;99.90
22765;DHT22;11549;50.852;3.816;2022-07-06T06:20:33;18.80;99.90
22765;DHT22;11549;50.852;3.816;2022-07-06T06:23:01;19.00;99.90
22765;DHT22;11549;50.852;3.816;2022-07-06T06:25:33;19.20;99.90
22765;DHT22;11549;50.852;3.816;2022-07-06T06:28:02;19.40;99.90
22765;DHT22;11549;50.852;3.816;2022-07-06T06:30:36;19.60;99.90
22765;DHT22;11549;50.852;3.816;2022-07-06T06:33:09;19.80;99.90
22765;DHT22;11549;50.852;3.816;2022-07-06T06:35:38;20.00;99.90
22765;DHT22;11549;50.852;3.816;2022-07-06T06:38:10;20.10;99.90
22765;DHT22;11549;50.852;3.816;2022-07-06T06:40:38;20.20;99.90
22765;DHT22;11549;50.852;3.816;2022-07-06T06:43:09;20.40;99.90
22765;DHT22;11549;50.852;3.816;2022-07-06T06:45:40;20.50;99.90
22765;DHT22;11549;50.852;3.816;2022-07-06T06:48:08;20.60;99.90
22765;DHT22;11549;50.852;3.816;2022-07-06T06:50:43;20.60;99.90
22765;DHT22;11549;50.852;3.816;2022-07-06T06:53:11;20.50;99.90
22765;DHT22;11549;50.852;3.816;2022-07-06T06:55:40;20.60;99.90
22765;DHT22;11549;50.852;3.816;2022-07-06T06:58:08;20.80;99.90
22765;DHT22;11549;50.852;3.816;2022-07-06T07:00:39;20.90;99.90
22765;DHT22;11549;50.852;3.816;2022-07-06T07:03:07;21.00;99.90
22765;DHT22;11549;50.852;3.816;2022-07-06T07:05:37;21.00;99.90
22765;DHT22;11549;50.852;3.816;2022-07-06T07:08:05;21.00;99.90
22765;DHT22;11549;50.852;3.816;2022-07-06T07:10:34;21.10;99.90
22765;DHT22;11549;50.852;3.816;2022-07-06T07:13:02;21.30;99.90
22765;DHT22;11549;50.852;3.816;2022-07-06T07:15:30;21.40;99.90
22765;DHT22;11549;50.852;3.816;2022-07-06T07:18:00;21.40;99.90
22765;DHT22;11549;50.852;3.816;2022-07-06T07:20:29;21.30;99.90
22765;DHT22;11549;50.852;3.816;2022-07-06T07:23:00;21.50;99.90
22765;DHT22;11549;50.852;3.816;2022-07-06T07:25:28;21.80;99.90
22765;DHT22;11549;50.852;3.816;2022-07-06T07:27:59;22.10;99.90
22765;DHT22;11549;50.852;3.816;2022-07-06T07:30:27;22.40;99.90
22765;DHT22;11549;50.852;3.816;2022-07-06T07:32:55;22.80;99.90
22765;DHT22;11549;50.852;3.816;2022-07-06T07:35:25;22.80;99.90
22765;DHT22;11549;50.852;3.816;2022-07-06T07:37:54;22.80;98.80
22765;DHT22;11549;50.852;3.816;2022-07-06T07:40:22;22.80;99.40
22765;DHT22;11549;50.852;3.816;2022-07-06T07:42:50;23.00;99.40
22765;DHT22;11549;50.852;3.816;2022-07-06T07:45:19;23.40;99.70
22765;DHT22;11549;50.852;3.816;2022-07-06T07:47:47;23.60;99.30
22765;DHT22;11549;50.852;3.816;2022-07-06T07:50:15;23.90;98.30
22765;DHT22;11549;50.852;3.816;2022-07-06T07:52:46;24.30;95.70
22765;DHT22;11549;50.852;3.816;2022-07-06T07:55:14;24.40;95.50
22765;DHT22;11549;50.852;3.816;2022-07-06T07:58:03;24.60;95.20
22765;DHT22;11549;50.852;3.816;2022-07-06T08:00:31;24.90;94.30
22765;DHT22;11549;50.852;3.816;2022-07-06T08:02:59;25.20;92.80
22765;DHT22;11549;50.852;3.816;2022-07-06T08:05:27;25.10;91.20
22765;DHT22;11549;50.852;3.816;2022-07-06T08:07:57;25.20;90.60
22765;DHT22;11549;50.852;3.816;2022-07-06T08:10:26;25.10;90.80
22765;DHT22;11549;50.852;3.816;2022-07-06T08:12:54;25.30;91.00
22765;DHT22;11549;50.852;3.816;2022-07-06T08:15:23;25.60;89.90
22765;DHT22;11549;50.852;3.816;2022-07-06T08:17:51;25.70;92.20
22765;DHT22;11549;50.852;3.816;2022-07-06T08:20:20;26.00;89.40
22765;DHT22;11549;50.852;3.816;2022-07-06T08:22:48;26.10;89.60
22765;DHT22;11549;50.852;3.816;2022-07-06T08:25:18;26.00;90.80
22765;DHT22;11549;50.852;3.816;2022-07-06T08:27:47;26.20;90.20
22765;DHT22;11549;50.852;3.816;2022-07-06T08:30:15;26.40;88.20
22765;DHT22;11549;50.852;3.816;2022-07-06T08:32:43;26.40;87.10
22765;DHT22;11549;50.852;3.816;2022-07-06T08:35:32;26.30;87.70
22765;DHT22;11549;50.852;3.816;2022-07-06T08:38:00;26.30;90.10
22765;DHT22;11549;50.852;3.816;2022-07-06T08:40:33;26.10;88.90
22765;DHT22;11549;50.852;3.816;2022-07-06T08:43:07;26.60;88.90
22765;DHT22;11549;50.852;3.816;2022-07-06T08:45:36;26.30;85.80
22765;DHT22;11549;50.852;3.816;2022-07-06T08:48:06;25.30;87.60
22765;DHT22;11549;50.852;3.816;2022-07-06T08:50:35;25.60;91.10
22765;DHT22;11549;50.852;3.816;2022-07-06T08:53:04;25.80;89.20
22765;DHT22;11549;50.852;3.816;2022-07-06T08:55:34;25.40;90.50
22765;DHT22;11549;50.852;3.816;2022-07-06T08:58:03;24.80;90.30
22765;DHT22;11549;50.852;3.816;2022-07-06T09:00:34;24.70;91.80
22765;DHT22;11549;50.852;3.816;2022-07-06T09:03:02;24.50;90.60
22765;DHT22;11549;50.852;3.816;2022-07-06T09:05:34;24.20;91.00
22765;DHT22;11549;50.852;3.816;2022-07-06T09:08:04;24.20;91.90
22765;DHT22;11549;50.852;3.816;2022-07-06T09:10:34;24.50;91.60
22765;DHT22;11549;50.852;3.816;2022-07-06T09:13:03;24.70;91.00
22765;DHT22;11549;50.852;3.816;2022-07-06T09:15:32;24.90;90.70
22765;DHT22;11549;50.852;3.816;2022-07-06T09:18:02;25.00;90.40
22765;DHT22;11549;50.852;3.816;2022-07-06T09:20:34;25.00;89.50
22765;DHT22;11549;50.852;3.816;2022-07-06T09:23:05;25.10;89.00
22765;DHT22;11549;50.852;3.816;2022-07-06T09:25:47;25.00;90.00
22765;DHT22;11549;50.852;3.816;2022-07-06T09:28:16;24.70;89.80
22765;DHT22;11549;50.852;3.816;2022-07-06T09:30:45;24.50;89.80
22765;DHT22;11549;50.852;3.816;2022-07-06T09:33:17;24.40;90.30
22765;DHT22;11549;50.852;3.816;2022-07-06T09:35:46;24.20;90.80
22765;DHT22;11549;50.852;3.816;2022-07-06T09:38:15;24.60;91.40
22765;DHT22;11549;50.852;3.816;2022-07-06T09:40:46;25.10;90.30
22765;DHT22;11549;50.852;3.816;2022-07-06T09:43:19;25.30;90.00
22765;DHT22;11549;50.852;3.816;2022-07-06T09:45:50;25.50;89.10
22765;DHT22;11549;50.852;3.816;2022-07-06T09:48:20;25.70;89.60
22765;DHT22;11549;50.852;3.816;2022-07-06T09:50:54;25.70;90.20
22765;DHT22;11549;50.852;3.816;2022-07-06T09:53:23;25.80;90.10
22765;DHT22;11549;50.852;3.816;2022-07-06T09:55:55;26.10;89.70
22765;DHT22;11549;50.852;3.816;2022-07-06T09:58:25;26.40;85.50
22765;DHT22;11549;50.852;3.816;2022-07-06T10:01:25;26.00;86.80
22765;DHT22;11549;50.852;3.816;2022-07-06T10:03:54;25.90;86.00
22765;DHT22;11549;50.852;3.816;2022-07-06T10:06:24;25.50;85.30
22765;DHT22;11549;50.852;3.816;2022-07-06T10:08:53;25.30;89.30
22765;DHT22;11549;50.852;3.816;2022-07-06T10:11:24;25.40;87.00
22765;DHT22;11549;50.852;3.816;2022-07-06T10:13:56;25.60;87.30
22765;DHT22;11549;50.852;3.816;2022-07-06T10:16:25;25.80;89.10
22765;DHT22;11549;50.852;3.816;2022-07-06T10:18:55;26.10;87.10
22765;DHT22;11549;50.852;3.816;2022-07-06T10:21:23;26.40;86.50
22765;DHT22;11549;50.852;3.816;2022-07-06T10:23:56;26.70;84.30
22765;DHT22;11549;50.852;3.816;2022-07-06T10:26:29;26.70;83.30
22765;DHT22;11549;50.852;3.816;2022-07-06T10:29:00;26.70;82.60
22765;DHT22;11549;50.852;3.816;2022-07-06T10:31:29;26.10;83.50
22765;DHT22;11549;50.852;3.816;2022-07-06T10:34:00;26.10;84.70
22765;DHT22;11549;50.852;3.816;2022-07-06T10:36:29;26.20;84.50
22765;DHT22;11549;50.852;3.816;2022-07-06T10:38:57;26.30;84.00
22765;DHT22;11549;50.852;3.816;2022-07-06T10:41:47;26.30;88.50
22765;DHT22;11549;50.852;3.816;2022-07-06T10:44:16;26.50;82.80
22765;DHT22;11549;50.852;3.816;2022-07-06T10:46:52;26.10;83.70
22765;DHT22;11549;50.852;3.816;2022-07-06T10:49:22;26.10;88.00
22765;DHT22;11549;50.852;3.816;2022-07-06T10:52:10;25.90;90.30
22765;DHT22;11549;50.852;3.816;2022-07-06T10:54:39;25.70;87.80
22765;DHT22;11549;50.852;3.816;2022-07-06T10:57:10;25.90;87.30
22765;DHT22;11549;50.852;3.816;2022-07-06T11:00:00;26.10;86.40
22765;DHT22;11549;50.852;3.816;2022-07-06T11:02:37;26.40;86.60
22765;DHT22;11549;50.852;3.816;2022-07-06T11:05:10;26.70;85.80
22765;DHT22;11549;50.852;3.816;2022-07-06T11:07:49;26.70;86.10
22765;DHT22;11549;50.852;3.816;2022-07-06T11:10:18;26.60;87.40
22765;DHT22;11549;50.852;3.816;2022-07-06T11:12:58;27.10;85.20
22765;DHT22;11549;50.852;3.816;2022-07-06T11:15:46;27.40;82.90
22765;DHT22;11549;50.852;3.816;2022-07-06T11:18:19;27.50;85.00
22765;DHT22;11549;50.852;3.816;2022-07-06T11:21:14;27.20;82.60
22765;DHT22;11549;50.852;3.816;2022-07-06T11:23:45;27.20;82.70
22765;DHT22;11549;50.852;3.816;2022-07-06T11:26:15;26.70;83.80
22765;DHT22;11549;50.852;3.816;2022-07-06T11:28:47;26.70;86.10
22765;DHT22;11549;50.852;3.816;2022-07-06T11:31:18;26.50;86.30
22765;DHT22;11549;50.852;3.816;2022-07-06T11:33:47;26.50;85.60
22765;DHT22;11549;50.852;3.816;2022-07-06T11:36:17;26.60;86.80
22765;DHT22;11549;50.852;3.816;2022-07-06T11:38:49;26.90;85.60
22765;DHT22;11549;50.852;3.816;2022-07-06T11:41:18;27.30;81.10
22765;DHT22;11549;50.852;3.816;2022-07-06T11:43:48;27.20;84.00
22765;DHT22;11549;50.852;3.816;2022-07-06T11:46:23;27.10;85.40
22765;DHT22;11549;50.852;3.816;2022-07-06T11:48:53;27.20;85.60
22765;DHT22;11549;50.852;3.816;2022-07-06T11:51:23;27.60;84.00
22765;DHT22;11549;50.852;3.816;2022-07-06T11:53:53;27.80;87.00
22765;DHT22;11549;50.852;3.816;2022-07-06T11:56:22;28.20;85.30
22765;DHT22;11549;50.852;3.816;2022-07-06T11:58:55;28.60;81.60
22765;DHT22;11549;50.852;3.816;2022-07-06T12:01:25;29.10;79.90
22765;DHT22;11549;50.852;3.816;2022-07-06T12:03:59;29.10;73.80
22765;DHT22;11549;50.852;3.816;2022-07-06T12:06:28;29.00;74.30
22765;DHT22;11549;50.852;3.816;2022-07-06T12:08:58;29.10;75.70
22765;DHT22;11549;50.852;3.816;2022-07-06T12:11:28;29.50;77.40
22765;DHT22;11549;50.852;3.816;2022-07-06T12:13:59;29.50;74.10
22765;DHT22;11549;50.852;3.816;2022-07-06T12:16:33;28.90;74.40
22765;DHT22;11549;50.852;3.816;2022-07-06T12:19:01;29.00;71.80
22765;DHT22;11549;50.852;3.816;2022-07-06T12:21:34;28.90;72.30
22765;DHT22;11549;50.852;3.816;2022-07-06T12:24:07;29.00;76.90
22765;DHT22;11549;50.852;3.816;2022-07-06T12:26:39;29.10;71.50
22765;DHT22;11549;50.852;3.816;2022-07-06T12:29:11;29.30;71.50
22765;DHT22;11549;50.852;3.816;2022-07-06T12:31:42;29.70;68.80
22765;DHT22;11549;50.852;3.816;2022-07-06T12:34:15;29.70;69.70
22765;DHT22;11549;50.852;3.816;2022-07-06T12:36:45;29.90;73.80
22765;DHT22;11549;50.852;3.816;2022-07-06T12:39:14;29.80;70.10
22765;DHT22;11549;50.852;3.816;2022-07-06T12:41:47;29.80;71.00
22765;DHT22;11549;50.852;3.816;2022-07-06T12:44:19;29.70;73.80
22765;DHT22;11549;50.852;3.816;2022-07-06T12:46:48;30.10;72.50
22765;DHT22;11549;50.852;3.816;2022-07-06T12:49:19;30.40;71.10
22765;DHT22;11549;50.852;3.816;2022-07-06T12:51:51;30.80;70.80
22765;DHT22;11549;50.852;3.816;2022-07-06T12:54:20;31.00;68.70
22765;DHT22;11549;50.852;3.816;2022-07-06T12:57:06;30.90;68.90
22765;DHT22;11549;50.852;3.816;2022-07-06T12:59:38;30.70;67.50
22765;DHT22;11549;50.852;3.816;2022-07-06T13:02:09;30.50;71.20
22765;DHT22;11549;50.852;3.816;2022-07-06T13:04:54;30.00;74.50
22765;DHT22;11549;50.852;3.816;2022-07-06T13:07:23;30.10;69.10
22765;DHT22;11549;50.852;3.816;2022-07-06T13:09:51;29.70;72.20
22765;DHT22;11549;50.852;3.816;2022-07-06T13:12:20;29.90;72.70
22765;DHT22;11549;50.852;3.816;2022-07-06T13:14:51;30.20;70.70
22765;DHT22;11549;50.852;3.816;2022-07-06T13:17:20;30.30;67.40
22765;DHT22;11549;50.852;3.816;2022-07-06T13:19:48;30.50;66.80
22765;DHT22;11549;50.852;3.816;2022-07-06T13:22:17;30.50;71.70
22765;DHT22;11549;50.852;3.816;2022-07-06T13:24:46;30.50;68.00
22765;DHT22;11549;50.852;3.816;2022-07-06T13:27:14;30.60;68.00
22765;DHT22;11549;50.852;3.816;2022-07-06T13:29:43;30.20;68.20
22765;DHT22;11549;50.852;3.816;2022-07-06T13:32:13;30.50;67.50
22765;DHT22;11549;50.852;3.816;2022-07-06T13:34:41;30.30;68.60
22765;DHT22;11549;50.852;3.816;2022-07-06T13:37:10;30.50;68.80
22765;DHT22;11549;50.852;3.816;2022-07-06T13:39:38;30.50;66.40
22765;DHT22;11549;50.852;3.816;2022-07-06T13:42:07;30.00;68.70
22765;DHT22;11549;50.852;3.816;2022-07-06T13:44:36;29.40;70.90
22765;DHT22;11549;50.852;3.816;2022-07-06T13:47:04;29.20;68.70
22765;DHT22;11549;50.852;3.816;2022-07-06T13:49:34;29.00;69.50
22765;DHT22;11549;50.852;3.816;2022-07-06T13:52:03;29.10;72.30
22765;DHT22;11549;50.852;3.816;2022-07-06T13:54:32;29.60;70.10
22765;DHT22;11549;50.852;3.816;2022-07-06T13:57:02;29.80;70.40
22765;DHT22;11549;50.852;3.816;2022-07-06T13:59:32;29.80;72.40
22765;DHT22;11549;50.852;3.816;2022-07-06T14:02:00;30.30;67.70
22765;DHT22;11549;50.852;3.816;2022-07-06T14:04:28;30.40;68.10
22765;DHT22;11549;50.852;3.816;2022-07-06T14:06:58;30.40;67.50
22765;DHT22;11549;50.852;3.816;2022-07-06T14:09:28;30.20;67.90
22765;DHT22;11549;50.852;3.816;2022-07-06T14:11:56;30.00;67.80
22765;DHT22;11549;50.852;3.816;2022-07-06T14:14:24;29.60;68.30
22765;DHT22;11549;50.852;3.816;2022-07-06T14:16:52;29.30;70.80
22765;DHT22;11549;50.852;3.816;2022-07-06T14:19:23;29.00;70.50
22765;DHT22;11549;50.852;3.816;2022-07-06T14:21:52;28.60;72.20
22765;DHT22;11549;50.852;3.816;2022-07-06T14:24:23;28.40;74.50
22765;DHT22;11549;50.852;3.816;2022-07-06T14:26:57;28.20;75.10
22765;DHT22;11549;50.852;3.816;2022-07-06T14:29:26;28.30;73.80
22765;DHT22;11549;50.852;3.816;2022-07-06T14:31:54;28.30;75.20
22765;DHT22;11549;50.852;3.816;2022-07-06T14:34:23;28.40;73.90
22765;DHT22;11549;50.852;3.816;2022-07-06T14:36:52;28.40;74.30
22765;DHT22;11549;50.852;3.816;2022-07-06T14:39:20;28.40;73.90
22765;DHT22;11549;50.852;3.816;2022-07-06T14:41:53;28.20;73.40
22765;DHT22;11549;50.852;3.816;2022-07-06T14:44:22;27.90;75.70
22765;DHT22;11549;50.852;3.816;2022-07-06T14:46:50;27.50;79.10
22765;DHT22;11549;50.852;3.816;2022-07-06T14:49:18;27.20;77.90
22765;DHT22;11549;50.852;3.816;2022-07-06T14:51:48;27.10;80.30
22765;DHT22;11549;50.852;3.816;2022-07-06T14:54:16;27.20;79.80
22765;DHT22;11549;50.852;3.816;2022-07-06T14:56:45;27.30;78.10
22765;DHT22;11549;50.852;3.816;2022-07-06T14:59:15;27.20;76.20
22765;DHT22;11549;50.852;3.816;2022-07-06T15:01:52;27.00;79.30
22765;DHT22;11549;50.852;3.816;2022-07-06T15:04:21;26.70;78.20
22765;DHT22;11549;50.852;3.816;2022-07-06T15:06:49;26.60;78.90
22765;DHT22;11549;50.852;3.816;2022-07-06T15:09:22;26.60;78.30
22765;DHT22;11549;50.852;3.816;2022-07-06T15:11:50;26.60;78.50
22765;DHT22;11549;50.852;3.816;2022-07-06T15:14:20;26.50;81.20
22765;DHT22;11549;50.852;3.816;2022-07-06T15:16:49;26.40;81.80
22765;DHT22;11549;50.852;3.816;2022-07-06T15:19:17;26.20;82.30
22765;DHT22;11549;50.852;3.816;2022-07-06T15:21:46;25.90;82.30
22765;DHT22;11549;50.852;3.816;2022-07-06T15:24:14;25.80;83.10
22765;DHT22;11549;50.852;3.816;2022-07-06T15:26:43;25.40;86.20
22765;DHT22;11549;50.852;3.816;2022-07-06T15:29:11;25.30;86.60
22765;DHT22;11549;50.852;3.816;2022-07-06T15:31:41;25.20;88.70
22765;DHT22;11549;50.852;3.816;2022-07-06T15:34:10;25.20;89.60
22765;DHT22;11549;50.852;3.816;2022-07-06T15:36:38;25.20;90.20
22765;DHT22;11549;50.852;3.816;2022-07-06T15:39:06;25.40;89.70
22765;DHT22;11549;50.852;3.816;2022-07-06T15:41:35;25.40;90.30
22765;DHT22;11549;50.852;3.816;2022-07-06T15:44:03;25.60;90.00
22765;DHT22;11549;50.852;3.816;2022-07-06T15:46:32;25.60;88.30
22765;DHT22;11549;50.852;3.816;2022-07-06T15:49:02;25.70;90.00